La Pine, OR (97739)

8:13 PM PDT on August 29, 2014 (GMT -0700)
Deedon Lane | Change Station
CLOSE
Current Station
Personal Weather Station
Location: La Pine, OR
Elevation: 4256 ft
Nearby Weather Stations

Elev 4256 ft 43.72 °N, 121.53 °W | Updated 32 seconds ago

Clear
Clear
62.9 °F
Feels Like 62.9 °F
N
0.0
Wind Variable Wind from West
Gusts 5.0 mph

Today
High -- | Low -- °F
--% Chance of Precip.
Yesterday
High -- | Low -- °F
Precip. -- in
6:26 AM 7:46 PM
Waxing Crescent, 18% visible
Pressure 29.98 in
Visibility 10.0 miles
Clouds Clear
Dew Point 44 °F
Humidity 51%
Rainfall 0.00 in
Snow Depth Not available.
UV 0 out of 12
Pollen 3.30 out of 12
Air Quality Not available.
Flu Activity Not available.
METAR KBDN 300235Z AUTO 32010KT 10SM CLR 21/07 A2998 RMK AO2

More Conditions Fewer Conditions

Pressure 29.98 in
Visibility 10.0 miles
Clouds Clear
Dew Point 44 °F
Humidity 51%
Rainfall 0.00 in
Snow Depth Not available.
UV 0 out of 12
Pollen 3.30 out of 12
Air Quality Not available.
Flu Activity Not available.
METAR KBDN 300235Z AUTO 32010KT 10SM CLR 21/07 A2998 RMK AO2

More Conditions Fewer Conditions

10-Day Weather Forecast

Almanac

Astronomy

Aug. 29, 2014 Rise Set
Actual Time 6:26 AM PDT 7:46 PM PDT
Civil Twilight 5:56 AM PDT 8:16 PM PDT
Nautical Twilight 5:20 AM PDT 8:52 PM PDT
Astronomical Twilight 4:42 AM PDT 9:30 PM PDT
Moon 10:29 AM PDT (8/29) 9:38 PM PDT (8/29)
Length of Visible Light 14h 19m
Length of Day
13h 20m
Tomorrow will be 2m 51s shorter.
Waxing Crescent, 18% of the Moon is Illuminated
Today
Waxing Crescent
Sep 2
First Quarter
Sep 8
Full
Sep 15
Last Quarter
Sep 24
New

Today's Extremes

State Highs State Lows

Community

WunderPhotos

Upload Photos

1,748,427 photos uploaded!

Nearby

Snow Depth

Station Depth Elevation
Irish Taylor 0 in 5500 ft
Salt Creek Falls 0 in 4000 ft
Roaring River 0 in 4900 ft
Diamond Lake 0 in 5315 ft
Holland Meadows 0 in 4900 ft

Earthquake Activity

City Distance Mag. Time & Date
Lakeview, Oregon 157 miles 2.8 3:14 PM PDT
2014-08-29
Lakeview, Oregon 158 miles 2.7 2:21 PM PDT
2014-08-29
Lakeview, Oregon 157 miles 3.0 10:47 AM PDT
2014-08-29
Lakeview, Oregon 158 miles 2.5 5:31 AM PDT
2014-08-29
Minimum magnitude displayed is 2.5.

Coastal Water Temperatures

Place Temperature
No Stations Reporting

Nearby Weather Stations